createdAt,value
2018-07-16T00:00:40.139Z,71.49
2018-07-16T00:03:09.337Z,71.81
2018-07-16T00:05:38.523Z,72.46
2018-07-16T00:08:07.713Z,72.77
2018-07-16T00:10:36.907Z,73.92
2018-07-16T00:13:06.275Z,73.00
2018-07-16T00:15:35.473Z,73.08
2018-07-16T00:18:04.677Z,73.65
2018-07-16T00:20:33.862Z,73.75
2018-07-16T00:23:03.020Z,73.81
2018-07-16T00:25:32.182Z,74.02
2018-07-16T00:28:01.336Z,73.76
2018-07-16T00:30:30.267Z,73.97
2018-07-16T00:32:59.445Z,74.60
2018-07-16T00:35:28.599Z,74.34
2018-07-16T00:37:57.756Z,74.31
2018-07-16T00:40:26.932Z,74.19
2018-07-16T00:42:56.082Z,74.04
2018-07-16T00:45:25.240Z,74.51
2018-07-16T00:47:54.400Z,75.62
2018-07-16T00:50:23.564Z,75.12
2018-07-16T00:52:52.718Z,76.13
2018-07-16T00:55:21.892Z,75.58
2018-07-16T00:57:51.054Z,76.54
2018-07-16T01:00:20.201Z,76.48
2018-07-16T01:02:49.347Z,76.38
2018-07-16T01:05:18.511Z,76.55
2018-07-16T01:07:47.686Z,77.28
2018-07-16T01:10:16.614Z,76.65
2018-07-16T01:12:45.773Z,77.01
2018-07-16T01:15:14.936Z,77.01
2018-07-16T01:17:44.104Z,77.68
2018-07-16T01:20:13.277Z,77.62
2018-07-16T01:22:42.441Z,77.60
2018-07-16T01:25:11.604Z,77.80
2018-07-16T01:27:40.764Z,78.12
2018-07-16T01:30:09.937Z,77.81
2018-07-16T01:32:45.845Z,78.27
2018-07-16T01:35:15.015Z,78.53
2018-07-16T01:37:43.939Z,78.69
2018-07-16T01:40:13.096Z,79.79
2018-07-16T01:42:42.588Z,80.90
2018-07-16T01:45:11.763Z,80.79
2018-07-16T01:47:40.928Z,80.60
2018-07-16T01:50:10.089Z,80.99
2018-07-16T01:52:39.263Z,81.21
2018-07-16T01:55:08.577Z,81.98
2018-07-16T01:57:37.728Z,83.02
2018-07-16T02:00:07.056Z,82.93
2018-07-16T02:02:36.212Z,82.16
2018-07-16T02:05:05.468Z,83.18
2018-07-16T02:07:34.683Z,84.32
2018-07-16T02:10:03.888Z,84.02
2018-07-16T02:12:33.087Z,84.48
2018-07-16T02:15:02.273Z,84.80
2018-07-16T02:17:31.471Z,84.90
2018-07-16T02:20:00.669Z,85.69
2018-07-16T02:22:29.621Z,86.04
2018-07-16T02:24:58.812Z,85.98
2018-07-16T02:27:27.996Z,85.58
2018-07-16T02:29:57.185Z,86.09
2018-07-16T02:32:26.544Z,84.22
2018-07-16T02:34:55.736Z,83.78
2018-07-16T02:37:24.929Z,84.26
2018-07-16T02:39:54.105Z,84.77
2018-07-16T02:42:23.306Z,85.72
2018-07-16T02:44:52.487Z,85.29
2018-07-16T02:47:21.676Z,85.37
2018-07-16T02:49:50.865Z,85.30
2018-07-16T02:52:20.078Z,85.94
2018-07-16T02:54:49.277Z,86.82
2018-07-16T02:57:18.451Z,86.90
2018-07-16T02:59:47.650Z,87.16
2018-07-16T03:02:16.828Z,87.31
2018-07-16T03:04:46.024Z,86.61
2018-07-16T03:07:15.199Z,87.22
2018-07-16T03:09:44.378Z,87.39
2018-07-16T03:12:13.542Z,86.99
2018-07-16T03:14:42.693Z,87.06
2018-07-16T03:17:11.984Z,87.10
2018-07-16T03:19:41.173Z,87.35
2018-07-16T03:22:10.336Z,87.76
2018-07-16T03:24:39.484Z,87.75
2018-07-16T03:27:08.644Z,87.74
2018-07-16T03:29:37.803Z,88.20
2018-07-16T03:32:07.249Z,87.51
2018-07-16T03:34:36.589Z,87.61
2018-07-16T03:37:05.879Z,88.06
2018-07-16T03:39:35.038Z,87.81
2018-07-16T03:42:04.206Z,87.75
2018-07-16T03:44:33.368Z,86.73
2018-07-16T03:47:02.523Z,86.60
2018-07-16T03:49:31.688Z,86.30
2018-07-16T03:52:00.845Z,86.46
2018-07-16T03:54:30.045Z,86.34
2018-07-16T03:56:59.162Z,85.94
2018-07-16T03:59:28.329Z,86.26
2018-07-16T04:01:57.483Z,85.93
2018-07-16T04:04:26.651Z,85.78
2018-07-16T04:06:55.769Z,85.64
2018-07-16T04:09:24.939Z,85.84
2018-07-16T04:11:54.441Z,86.64
2018-07-16T04:14:23.621Z,86.75
2018-07-16T04:16:52.789Z,86.62
2018-07-16T04:19:21.964Z,85.95
2018-07-16T04:21:51.122Z,86.23
2018-07-16T04:24:20.268Z,85.19
2018-07-16T04:26:49.436Z,84.79
2018-07-16T04:29:18.584Z,85.19
2018-07-16T04:31:47.748Z,85.31
2018-07-16T04:34:16.896Z,84.74
2018-07-16T04:36:46.052Z,85.44
2018-07-16T04:39:15.212Z,84.77
2018-07-16T04:41:44.139Z,84.16
2018-07-16T04:44:13.303Z,83.54
2018-07-16T04:46:42.471Z,84.10
2018-07-16T04:49:11.625Z,82.99
2018-07-16T04:51:40.788Z,82.75
2018-07-16T04:54:09.706Z,83.68
2018-07-16T04:56:38.880Z,82.81
2018-07-16T04:59:07.816Z,82.27
2018-07-16T05:01:36.971Z,82.46
2018-07-16T05:04:06.172Z,82.04
2018-07-16T05:06:35.359Z,82.31
2018-07-16T05:09:05.380Z,81.31
2018-07-16T05:11:34.559Z,81.04
2018-07-16T05:14:03.709Z,80.09
2018-07-16T05:16:39.498Z,80.81
2018-07-16T05:19:08.648Z,79.97
2018-07-16T05:21:37.808Z,82.35
2018-07-16T05:24:06.755Z,82.62
2018-07-16T05:26:35.896Z,82.96
2018-07-16T05:29:04.831Z,83.43
2018-07-16T05:31:34.000Z,83.77
2018-07-16T05:34:02.914Z,84.49
2018-07-16T05:36:32.065Z,83.09
2018-07-16T05:39:00.998Z,83.01
2018-07-16T05:41:30.157Z,83.93
2018-07-16T05:43:59.319Z,83.63
2018-07-16T05:46:28.475Z,84.22
2018-07-16T05:48:57.632Z,83.73
2018-07-16T05:51:26.788Z,84.10
2018-07-16T05:53:55.947Z,83.41
2018-07-16T05:56:24.875Z,83.36
2018-07-16T05:58:54.049Z,83.45
2018-07-16T06:01:23.236Z,83.83
2018-07-16T06:03:52.392Z,83.72
2018-07-16T06:06:21.557Z,83.77
2018-07-16T06:08:50.843Z,83.68
2018-07-16T06:11:19.891Z,83.03
2018-07-16T06:13:49.063Z,83.09
2018-07-16T06:16:18.229Z,82.25
2018-07-16T06:18:47.380Z,80.40
2018-07-16T06:21:16.538Z,80.00
2018-07-16T06:23:45.736Z,79.86
2018-07-16T06:26:14.883Z,78.84
2018-07-16T06:28:44.032Z,78.09
2018-07-16T06:31:13.183Z,77.51
2018-07-16T06:33:42.341Z,76.80
2018-07-16T06:36:11.498Z,76.65
2018-07-16T06:38:40.671Z,76.61
2018-07-16T06:41:10.103Z,76.13
2018-07-16T06:43:38.972Z,76.80
2018-07-16T06:46:07.911Z,75.06
2018-07-16T06:48:37.068Z,75.17
2018-07-16T06:51:06.239Z,74.51
2018-07-16T06:53:35.409Z,74.27
2018-07-16T06:56:04.580Z,75.27
2018-07-16T06:58:33.748Z,74.67
2018-07-16T07:01:02.989Z,72.78
2018-07-16T07:03:31.862Z,72.12
2018-07-16T07:06:01.029Z,73.36
2018-07-16T07:11:27.085Z,72.62
2018-07-16T07:13:56.275Z,73.75
2018-07-16T07:16:25.271Z,73.53
2018-07-16T07:18:54.463Z,73.41
2018-07-16T07:21:23.812Z,73.16
2018-07-16T07:23:52.980Z,73.99
2018-07-16T07:26:22.168Z,74.34
2018-07-16T07:28:51.323Z,73.37
2018-07-16T07:31:20.516Z,75.08
2018-07-16T07:33:49.704Z,74.52
2018-07-16T07:36:18.874Z,75.61
2018-07-16T07:38:48.052Z,74.51
2018-07-16T07:41:17.267Z,75.07
2018-07-16T07:43:46.458Z,74.90
2018-07-16T07:46:15.640Z,74.64
2018-07-16T07:48:44.600Z,75.29
2018-07-16T07:51:13.778Z,75.80
2018-07-16T07:53:42.950Z,75.61
2018-07-16T07:56:12.133Z,74.97
2018-07-16T07:58:41.093Z,75.09
2018-07-16T08:01:10.277Z,73.68
2018-07-16T08:03:39.458Z,74.05
2018-07-16T08:06:08.656Z,74.65
2018-07-16T08:08:38.537Z,74.79
2018-07-16T08:11:07.792Z,74.98
2018-07-16T08:13:36.942Z,74.14
2018-07-16T08:16:06.113Z,74.33
2018-07-16T08:18:35.062Z,75.35
2018-07-16T08:21:04.225Z,74.90
2018-07-16T08:23:33.381Z,74.65
2018-07-16T08:26:02.533Z,75.77
2018-07-16T08:28:31.684Z,75.33
2018-07-16T08:31:00.852Z,74.73
2018-07-16T08:33:30.030Z,74.42
2018-07-16T08:35:59.165Z,74.00
2018-07-16T08:38:28.315Z,74.17
2018-07-16T08:40:57.477Z,73.93
2018-07-16T08:43:26.641Z,73.37
2018-07-16T08:45:55.792Z,73.37
2018-07-16T08:48:24.932Z,73.34
2018-07-16T08:50:54.095Z,72.92
2018-07-16T08:53:23.237Z,73.08
2018-07-16T08:55:52.416Z,72.37
2018-07-16T08:58:21.562Z,73.61
2018-07-16T09:00:50.763Z,72.26
2018-07-16T09:03:20.156Z,72.16
2018-07-16T09:05:53.405Z,71.90
2018-07-16T09:08:22.556Z,71.66
2018-07-16T09:10:51.728Z,72.56
2018-07-16T09:13:20.960Z,72.17
2018-07-16T09:15:50.038Z,71.86
2018-07-16T09:18:19.204Z,71.27
2018-07-16T09:20:48.436Z,71.46
2018-07-16T09:23:17.735Z,70.79
2018-07-16T09:25:46.911Z,71.54
2018-07-16T09:28:16.089Z,69.91
2018-07-16T09:30:45.248Z,69.79
2018-07-16T09:33:14.410Z,70.16
2018-07-16T09:35:43.567Z,68.26
2018-07-16T09:38:12.729Z,67.81
2018-07-16T09:40:41.881Z,67.02
2018-07-16T09:43:11.059Z,67.53
2018-07-16T09:45:40.200Z,65.75
2018-07-16T09:48:09.345Z,65.42
2018-07-16T09:50:38.496Z,66.14
2018-07-16T09:53:07.662Z,65.12
2018-07-16T09:55:36.810Z,65.13
2018-07-16T09:58:06.118Z,64.58
2018-07-16T10:00:40.915Z,64.32
2018-07-16T10:03:09.856Z,62.42
2018-07-16T10:05:38.997Z,63.08
2018-07-16T10:08:07.964Z,64.43
2018-07-16T10:10:37.140Z,63.21
2018-07-16T10:13:06.526Z,62.19
2018-07-16T10:15:35.708Z,61.46
2018-07-16T10:18:04.901Z,61.99
2018-07-16T10:20:34.141Z,60.63
2018-07-16T10:23:03.347Z,62.49
2018-07-16T10:25:32.538Z,60.29
2018-07-16T10:28:01.727Z,60.28
2018-07-16T10:30:30.895Z,59.64
2018-07-16T10:33:00.064Z,58.51
2018-07-16T10:35:29.259Z,59.14
2018-07-16T10:37:58.435Z,57.83
2018-07-16T10:40:27.619Z,58.50
2018-07-16T10:42:56.788Z,58.55
2018-07-16T10:45:25.987Z,57.67
2018-07-16T10:47:55.165Z,56.77
2018-07-16T10:50:24.344Z,55.28
2018-07-16T10:52:53.525Z,54.40
2018-07-16T10:55:22.838Z,55.74
2018-07-16T10:57:51.900Z,56.87
2018-07-16T11:00:21.167Z,56.09
2018-07-16T11:02:50.366Z,55.22
2018-07-16T11:05:19.495Z,54.97
2018-07-16T11:07:48.656Z,58.36
2018-07-16T11:10:17.840Z,57.51
2018-07-16T11:12:47.053Z,55.82
2018-07-16T11:15:16.240Z,55.54
2018-07-16T11:17:45.425Z,55.34
2018-07-16T11:20:14.605Z,55.92
2018-07-16T11:22:43.799Z,56.51
2018-07-16T11:25:12.977Z,53.67
2018-07-16T11:27:42.181Z,53.81
2018-07-16T11:30:11.387Z,53.09
2018-07-16T11:32:40.570Z,52.14
2018-07-16T11:35:09.741Z,53.87
2018-07-16T11:37:38.912Z,56.24
2018-07-16T11:40:08.104Z,55.97
2018-07-16T11:42:37.281Z,56.27
2018-07-16T11:45:06.590Z,55.33
2018-07-16T11:47:35.786Z,54.79
2018-07-16T11:50:05.526Z,54.33
2018-07-16T11:52:34.728Z,51.01
2018-07-16T11:55:03.889Z,49.92
2018-07-16T11:57:33.078Z,49.72
2018-07-16T12:00:02.365Z,49.01
2018-07-16T12:02:31.565Z,48.06
2018-07-16T12:05:00.745Z,48.09
2018-07-16T12:07:29.888Z,47.93
2018-07-16T12:09:59.042Z,44.84
2018-07-16T12:12:28.193Z,43.46
2018-07-16T12:14:57.116Z,45.07
2018-07-16T12:17:26.256Z,39.61
2018-07-16T12:19:55.397Z,40.41
2018-07-16T12:22:24.532Z,36.15
2018-07-16T12:24:53.687Z,38.71
2018-07-16T12:27:22.841Z,37.46
2018-07-16T12:29:52.035Z,35.85
2018-07-16T12:32:21.185Z,34.16
2018-07-16T12:34:50.557Z,31.88
2018-07-16T12:37:19.708Z,32.32
2018-07-16T12:39:49.052Z,32.79
2018-07-16T12:42:18.544Z,31.15
2018-07-16T12:44:47.488Z,31.24
2018-07-16T12:47:16.621Z,33.57
2018-07-16T12:49:45.776Z,33.48
2018-07-16T12:52:14.918Z,32.48
2018-07-16T12:54:44.084Z,33.60
2018-07-16T12:57:13.275Z,33.83
2018-07-16T12:59:42.379Z,31.97
2018-07-16T13:02:12.032Z,32.38
2018-07-16T13:04:41.173Z,29.80
2018-07-16T13:07:10.348Z,31.37
2018-07-16T13:09:39.523Z,31.28
2018-07-16T13:12:08.708Z,30.02
2018-07-16T13:14:37.684Z,28.43
2018-07-16T13:17:06.888Z,28.50
2018-07-16T13:19:35.836Z,29.17
2018-07-16T13:22:05.076Z,25.63
2018-07-16T13:24:34.498Z,27.51
2018-07-16T13:27:03.684Z,28.46
2018-07-16T13:29:32.918Z,27.33
2018-07-16T13:32:02.096Z,26.20
2018-07-16T13:34:31.271Z,25.99
2018-07-16T13:37:00.506Z,25.90
2018-07-16T13:39:29.630Z,28.24
2018-07-16T13:41:58.794Z,29.48
2018-07-16T13:44:27.982Z,27.12
2018-07-16T13:46:57.167Z,28.41
2018-07-16T13:49:26.112Z,27.56
2018-07-16T13:51:55.297Z,28.42
2018-07-16T13:54:24.476Z,28.81
2018-07-16T13:56:53.721Z,29.07
2018-07-16T13:59:22.826Z,29.82
2018-07-16T14:01:51.995Z,30.57
2018-07-16T14:04:21.167Z,30.36
2018-07-16T14:06:50.301Z,29.89
2018-07-16T14:09:19.455Z,28.12
2018-07-16T14:11:48.587Z,26.10
2018-07-16T14:14:17.732Z,29.71
2018-07-16T14:16:46.876Z,27.79
2018-07-16T14:19:16.023Z,28.12
2018-07-16T14:21:45.202Z,27.57
2018-07-16T14:24:14.380Z,27.24
2018-07-16T14:26:43.532Z,27.32
2018-07-16T14:29:12.683Z,28.34
2018-07-16T14:31:41.824Z,30.37
2018-07-16T14:34:10.959Z,28.81
2018-07-16T14:36:40.097Z,27.57
2018-07-16T14:39:09.065Z,26.08
2018-07-16T14:41:38.232Z,26.69
2018-07-16T14:44:07.396Z,25.58
2018-07-16T14:46:36.550Z,24.67
2018-07-16T14:49:06.284Z,25.73
2018-07-16T14:51:35.215Z,26.28
2018-07-16T14:54:04.397Z,26.45
2018-07-16T14:56:33.567Z,25.95
2018-07-16T14:59:02.710Z,25.63
2018-07-16T15:01:31.863Z,25.73
2018-07-16T15:04:00.999Z,25.70
2018-07-16T15:06:30.148Z,25.82
2018-07-16T15:08:59.283Z,28.19
2018-07-16T15:11:28.436Z,26.03
2018-07-16T15:13:57.629Z,25.24
2018-07-16T15:16:26.707Z,25.11
2018-07-16T15:18:55.851Z,25.66
2018-07-16T15:21:25.221Z,25.12
2018-07-16T15:23:54.145Z,25.57
2018-07-16T15:26:23.306Z,25.39
2018-07-16T15:28:52.444Z,26.18
2018-07-16T15:31:22.432Z,24.85
2018-07-16T15:33:51.572Z,25.44
2018-07-16T15:36:20.704Z,25.04
2018-07-16T15:38:49.853Z,25.70
2018-07-16T15:41:19.024Z,27.20
2018-07-16T15:43:48.221Z,27.92
2018-07-16T15:46:17.148Z,27.99
2018-07-16T15:48:46.290Z,27.59
2018-07-16T15:51:15.422Z,27.51
2018-07-16T15:53:44.651Z,31.57
2018-07-16T15:57:16.696Z,31.32
2018-07-16T15:59:45.853Z,32.19
2018-07-16T16:02:15.129Z,33.60
2018-07-16T16:04:44.279Z,38.16
2018-07-16T16:07:13.424Z,39.83
2018-07-16T16:09:42.581Z,42.42
2018-07-16T16:12:11.721Z,43.53
2018-07-16T16:14:40.872Z,45.04
2018-07-16T16:17:10.025Z,46.54
2018-07-16T16:19:39.200Z,45.92
2018-07-16T16:22:08.336Z,45.78
2018-07-16T16:24:37.501Z,44.37
2018-07-16T16:27:06.659Z,41.16
2018-07-16T16:29:35.825Z,41.73
2018-07-16T16:32:04.972Z,47.70
2018-07-16T16:34:34.184Z,48.32
2018-07-16T16:37:03.337Z,54.90
2018-07-16T16:39:32.500Z,57.76
2018-07-16T16:42:01.677Z,60.05
2018-07-16T16:44:30.793Z,58.74
2018-07-16T16:47:00.129Z,57.71
2018-07-16T16:49:29.291Z,55.11
2018-07-16T16:51:58.721Z,51.53
2018-07-16T16:54:27.657Z,51.53
2018-07-16T16:56:56.814Z,53.49
2018-07-16T16:59:25.955Z,49.25
2018-07-16T17:01:55.101Z,47.53
2018-07-16T17:04:24.252Z,44.61
2018-07-16T17:06:53.436Z,44.70
2018-07-16T17:09:22.602Z,44.90
2018-07-16T17:11:51.837Z,41.93
2018-07-16T17:14:20.948Z,38.83
2018-07-16T17:16:50.125Z,39.54
2018-07-16T17:19:19.283Z,39.01
2018-07-16T17:21:48.455Z,37.75
2018-07-16T17:24:17.630Z,44.03
2018-07-16T17:26:46.809Z,42.23
2018-07-16T17:29:16.025Z,46.39
2018-07-16T17:31:45.205Z,48.63
2018-07-16T17:34:14.390Z,46.46
2018-07-16T17:36:43.568Z,46.29
2018-07-16T17:39:12.737Z,46.02
2018-07-16T17:41:41.921Z,41.80
2018-07-16T17:44:11.112Z,41.91
2018-07-16T17:46:40.308Z,47.71
2018-07-16T17:49:09.498Z,46.85
2018-07-16T17:51:38.697Z,49.21
2018-07-16T17:54:08.066Z,54.03
2018-07-16T17:56:37.247Z,56.42
2018-07-16T17:59:06.645Z,54.36
2018-07-16T18:01:36.067Z,55.59
2018-07-16T18:04:05.245Z,55.63
2018-07-16T18:06:34.433Z,53.72
2018-07-16T18:09:03.504Z,55.38
2018-07-16T18:11:32.693Z,55.42
2018-07-16T18:14:01.900Z,52.81
2018-07-16T18:16:31.083Z,53.50
2018-07-16T18:19:00.273Z,55.61
2018-07-16T18:21:29.473Z,55.76
2018-07-16T18:23:58.648Z,55.84
2018-07-16T18:26:27.826Z,53.99
2018-07-16T18:28:57.325Z,54.38
2018-07-16T18:31:26.520Z,55.67
2018-07-16T18:33:55.696Z,55.92
2018-07-16T18:36:24.869Z,55.40
2018-07-16T18:38:54.044Z,55.80
2018-07-16T18:41:23.219Z,55.76
2018-07-16T18:43:52.408Z,55.78
2018-07-16T18:46:21.364Z,56.08
2018-07-16T18:48:50.700Z,55.84
2018-07-16T18:51:19.879Z,55.96
2018-07-16T18:53:49.098Z,56.99
2018-07-16T18:56:18.280Z,56.65
2018-07-16T18:58:47.236Z,57.27
2018-07-16T19:01:16.434Z,57.24
2018-07-16T19:03:45.632Z,57.48
2018-07-16T19:06:14.840Z,57.57
2018-07-16T19:08:44.020Z,57.04
2018-07-16T19:11:13.213Z,56.22
2018-07-16T19:13:42.416Z,56.73
2018-07-16T19:16:11.593Z,56.23
2018-07-16T19:18:40.785Z,57.18
2018-07-16T19:21:09.973Z,57.73
2018-07-16T19:23:39.145Z,58.04
2018-07-16T19:26:08.363Z,57.85
2018-07-16T19:28:37.626Z,57.82
2018-07-16T19:31:06.760Z,57.91
2018-07-16T19:33:35.950Z,57.87
2018-07-16T19:36:05.149Z,58.43
2018-07-16T19:38:34.404Z,58.58
2018-07-16T19:41:03.531Z,58.93
2018-07-16T19:43:32.718Z,59.41
2018-07-16T19:46:01.918Z,59.51
2018-07-16T19:48:31.120Z,60.29
2018-07-16T19:51:00.173Z,60.34
2018-07-16T19:53:29.277Z,61.79
2018-07-16T19:55:58.477Z,61.53
2018-07-16T19:58:27.676Z,61.90
2018-07-16T20:00:56.858Z,64.14
2018-07-16T20:03:26.064Z,65.33
2018-07-16T20:05:55.256Z,64.67
2018-07-16T20:08:24.555Z,64.94
2018-07-16T20:10:53.641Z,64.31
2018-07-16T20:13:22.855Z,63.37
2018-07-16T20:15:52.017Z,63.94
2018-07-16T20:18:21.213Z,63.59
2018-07-16T20:20:55.544Z,65.13
2018-07-16T20:23:24.721Z,64.69
2018-07-16T20:25:55.564Z,64.08
2018-07-16T20:28:25.057Z,63.99
2018-07-16T20:30:54.242Z,63.89
2018-07-16T20:33:23.651Z,65.20
2018-07-16T20:35:52.848Z,65.69
2018-07-16T20:38:22.036Z,65.86
2018-07-16T20:40:51.204Z,65.36
2018-07-16T20:43:20.396Z,65.37
2018-07-16T20:45:49.590Z,64.81
2018-07-16T20:48:18.755Z,65.18
2018-07-16T20:50:47.941Z,66.72
2018-07-16T20:53:17.136Z,66.90
2018-07-16T20:55:46.308Z,67.10
2018-07-16T20:58:15.484Z,66.77
2018-07-16T21:00:44.664Z,67.57
2018-07-16T21:03:13.840Z,67.95
2018-07-16T21:05:43.033Z,67.31
2018-07-16T21:08:12.242Z,67.18
2018-07-16T21:10:41.425Z,66.93
2018-07-16T21:13:10.610Z,66.90
2018-07-16T21:15:39.796Z,67.60
2018-07-16T21:18:08.989Z,67.44
2018-07-16T21:20:37.944Z,68.10
2018-07-16T21:23:07.465Z,68.99
2018-07-16T21:25:36.636Z,68.12
2018-07-16T21:28:05.832Z,67.92
2018-07-16T21:30:35.022Z,68.55
2018-07-16T21:33:04.216Z,68.41
2018-07-16T21:35:33.465Z,68.17
2018-07-16T21:38:02.574Z,69.17
2018-07-16T21:40:31.849Z,70.71
2018-07-16T21:43:00.952Z,70.51
2018-07-16T21:45:30.131Z,70.61
2018-07-16T21:47:59.299Z,69.50
2018-07-16T21:50:28.471Z,70.09
2018-07-16T21:52:57.649Z,68.99
2018-07-16T21:55:26.607Z,68.32
2018-07-16T21:57:55.888Z,69.71
2018-07-16T22:00:28.843Z,70.53
2018-07-16T22:02:59.057Z,72.03
2018-07-16T22:05:28.701Z,71.58
2018-07-16T22:07:58.883Z,72.40
2018-07-16T22:10:28.600Z,72.35
2018-07-16T22:12:58.617Z,72.30
2018-07-16T22:15:28.838Z,72.32
2018-07-16T22:17:58.756Z,71.81
2018-07-16T22:20:28.368Z,72.41
2018-07-16T22:22:57.655Z,72.73
2018-07-16T22:25:27.273Z,72.39
2018-07-16T22:27:56.456Z,71.52
2018-07-16T22:30:25.641Z,73.76
2018-07-16T22:32:54.900Z,73.25
2018-07-16T22:35:24.073Z,73.65
2018-07-16T22:37:53.243Z,74.13
2018-07-16T22:40:22.424Z,74.14
2018-07-16T22:42:51.609Z,74.05
2018-07-16T22:45:20.785Z,72.24
2018-07-16T22:47:49.964Z,74.39
2018-07-16T22:50:19.142Z,75.63
2018-07-16T22:52:48.321Z,75.68
2018-07-16T22:55:17.269Z,76.12
2018-07-16T22:57:46.448Z,75.76
2018-07-16T23:00:15.619Z,75.64
2018-07-16T23:02:44.805Z,74.89
2018-07-16T23:05:13.978Z,74.71
2018-07-16T23:07:43.630Z,75.70
2018-07-16T23:10:12.789Z,75.17
2018-07-16T23:12:42.012Z,74.63
2018-07-16T23:15:10.940Z,74.26
2018-07-16T23:17:40.094Z,74.54
2018-07-16T23:20:09.248Z,73.90
2018-07-16T23:22:51.523Z,73.94
2018-07-16T23:25:21.216Z,73.46
2018-07-16T23:27:50.545Z,71.95
2018-07-16T23:30:19.719Z,72.76
2018-07-16T23:32:48.909Z,73.02
2018-07-16T23:35:18.419Z,73.47
2018-07-16T23:37:47.708Z,73.34
2018-07-16T23:40:16.872Z,71.56
2018-07-16T23:42:46.008Z,72.39
2018-07-16T23:45:15.166Z,72.74
2018-07-16T23:47:44.304Z,73.50
2018-07-16T23:50:13.270Z,72.96
2018-07-16T23:52:42.411Z,72.79
2018-07-16T23:55:11.548Z,72.17
2018-07-16T23:57:40.691Z,71.09
